createdAt,value
2023-05-23T00:00:59.312Z,42.14
2023-05-23T00:03:45.822Z,42.30
2023-05-23T00:06:31.980Z,42.49
2023-05-23T00:09:18.512Z,42.30
2023-05-23T00:12:05.122Z,42.56
2023-05-23T00:14:53.714Z,42.48
2023-05-23T00:17:39.851Z,42.47
2023-05-23T00:20:25.598Z,42.53
2023-05-23T00:23:27.862Z,42.47
2023-05-23T00:26:14.016Z,42.75
2023-05-23T00:29:05.008Z,42.79
2023-05-23T00:31:50.951Z,42.60
2023-05-23T00:34:37.951Z,42.91
2023-05-23T00:37:23.789Z,42.74
2023-05-23T00:40:10.286Z,42.87
2023-05-23T00:42:56.311Z,42.93
2023-05-23T00:45:42.596Z,42.81
2023-05-23T00:48:29.266Z,42.77
2023-05-23T00:51:16.318Z,43.21
2023-05-23T00:54:04.335Z,43.19
2023-05-23T00:56:50.263Z,43.28
2023-05-23T00:59:37.386Z,43.35
2023-05-23T01:02:23.309Z,43.45
2023-05-23T01:05:11.599Z,43.39
2023-05-23T01:07:57.809Z,43.58
2023-05-23T01:10:43.575Z,43.64
2023-05-23T01:13:45.154Z,43.97
2023-05-23T01:16:48.961Z,44.19
2023-05-23T01:20:10.145Z,44.45
2023-05-23T01:23:12.115Z,43.68
2023-05-23T01:26:04.253Z,43.64
2023-05-23T01:28:54.527Z,43.69
2023-05-23T01:31:47.152Z,43.79
2023-05-23T01:34:35.774Z,43.69
2023-05-23T01:37:21.919Z,43.43
2023-05-23T01:40:09.657Z,43.66
2023-05-23T01:42:57.863Z,43.93
2023-05-23T01:45:43.976Z,43.91
2023-05-23T01:48:32.228Z,43.83
2023-05-23T01:51:19.066Z,44.13
2023-05-23T01:54:05.668Z,43.87
2023-05-23T01:56:51.655Z,44.08
2023-05-23T01:59:38.658Z,43.98
2023-05-23T02:02:25.175Z,44.08
2023-05-23T02:05:13.824Z,44.15
2023-05-23T02:08:00.063Z,44.23
2023-05-23T02:10:46.057Z,43.96
2023-05-23T02:13:31.827Z,44.29
2023-05-23T02:16:18.169Z,44.25
2023-05-23T02:19:05.160Z,44.38
2023-05-23T02:21:51.092Z,44.32
2023-05-23T02:24:37.572Z,44.34
2023-05-23T02:27:23.501Z,44.39
2023-05-23T02:30:09.714Z,44.38
2023-05-23T02:32:57.695Z,44.31
2023-05-23T02:35:44.385Z,44.37
2023-05-23T02:38:30.950Z,44.39
2023-05-23T02:41:17.056Z,44.44
2023-05-23T02:44:03.810Z,44.26
2023-05-23T02:46:51.250Z,44.46
2023-05-23T02:49:37.359Z,44.41
2023-05-23T02:52:23.263Z,44.64
2023-05-23T02:55:09.767Z,44.62
2023-05-23T02:58:00.837Z,44.58
2023-05-23T03:00:47.178Z,44.52
2023-05-23T03:03:33.313Z,44.65
2023-05-23T03:06:22.672Z,44.53
2023-05-23T03:09:10.627Z,44.75
2023-05-23T03:11:56.573Z,44.60
2023-05-23T03:14:42.307Z,44.84
2023-05-23T03:17:28.195Z,44.77
2023-05-23T03:20:16.411Z,44.76
2023-05-23T03:23:02.415Z,45.10
2023-05-23T03:25:48.784Z,45.12
2023-05-23T03:28:36.959Z,45.10
2023-05-23T03:31:22.883Z,44.97
2023-05-23T03:34:09.337Z,44.93
2023-05-23T03:36:55.501Z,45.11
2023-05-23T03:39:41.479Z,45.07
2023-05-23T03:42:28.502Z,44.91
2023-05-23T03:45:15.102Z,45.01
2023-05-23T03:48:01.526Z,44.98
2023-05-23T03:50:47.568Z,45.25
2023-05-23T03:53:34.807Z,45.13
2023-05-23T03:56:22.915Z,45.12
2023-05-23T03:59:09.030Z,45.19
2023-05-23T04:01:58.807Z,45.25
2023-05-23T04:04:44.963Z,45.08
2023-05-23T04:07:34.620Z,45.09
2023-05-23T04:10:20.524Z,45.27
2023-05-23T04:13:07.153Z,45.28
2023-05-23T04:15:53.175Z,45.30
2023-05-23T04:18:40.062Z,45.35
2023-05-23T04:21:27.482Z,45.21
2023-05-23T04:24:22.809Z,45.25
2023-05-23T04:27:09.027Z,45.35
2023-05-23T04:29:56.691Z,45.34
2023-05-23T04:32:43.039Z,45.46
2023-05-23T04:35:29.164Z,45.42
2023-05-23T04:38:15.356Z,45.64
2023-05-23T04:41:01.751Z,45.65
2023-05-23T04:44:17.126Z,45.62
2023-05-23T04:47:13.603Z,45.51
2023-05-23T04:50:15.058Z,45.44
2023-05-23T04:53:02.434Z,45.76
2023-05-23T04:55:48.938Z,45.52
2023-05-23T04:58:37.198Z,45.86
2023-05-23T05:01:28.204Z,45.92
2023-05-23T05:04:14.357Z,45.68
2023-05-23T05:07:00.710Z,45.89
2023-05-23T05:09:47.183Z,45.81
2023-05-23T05:12:34.483Z,45.86
2023-05-23T05:15:20.846Z,45.81
2023-05-23T05:18:12.428Z,45.90
2023-05-23T05:20:59.188Z,45.73
2023-05-23T05:23:45.312Z,45.83
2023-05-23T05:26:34.407Z,45.92
2023-05-23T05:29:22.089Z,45.74
2023-05-23T05:32:09.181Z,45.78
2023-05-23T05:34:55.778Z,46.02
2023-05-23T05:37:41.662Z,46.01
2023-05-23T05:40:29.091Z,46.14
2023-05-23T05:43:15.448Z,45.90
2023-05-23T05:46:01.928Z,45.73
2023-05-23T05:48:49.120Z,45.85
2023-05-23T05:51:36.883Z,46.11
2023-05-23T05:54:23.038Z,46.07
2023-05-23T05:57:09.314Z,46.09
2023-05-23T05:59:55.539Z,46.26
2023-05-23T06:02:47.808Z,46.05
2023-05-23T06:05:39.951Z,45.99
2023-05-23T06:08:26.148Z,45.79
2023-05-23T06:11:12.353Z,46.07
2023-05-23T06:14:00.429Z,46.06
2023-05-23T06:16:46.710Z,45.91
2023-05-23T06:19:34.081Z,45.86
2023-05-23T06:22:20.732Z,45.71
2023-05-23T06:25:09.967Z,45.65
2023-05-23T06:28:06.426Z,45.79
2023-05-23T06:30:53.586Z,45.60
2023-05-23T06:33:39.870Z,45.56
2023-05-23T06:36:28.243Z,45.53
2023-05-23T06:39:15.163Z,45.39
2023-05-23T06:42:04.083Z,45.47
2023-05-23T06:45:07.345Z,45.48
2023-05-23T06:47:53.456Z,45.36
2023-05-23T06:50:41.551Z,45.55
2023-05-23T06:53:30.032Z,45.34
2023-05-23T06:56:16.970Z,45.26
2023-05-23T06:59:16.195Z,45.26
2023-05-23T07:02:02.248Z,45.27
2023-05-23T07:04:52.068Z,45.36
2023-05-23T07:07:57.884Z,45.20
2023-05-23T07:10:45.022Z,45.38
2023-05-23T07:13:44.673Z,45.11
2023-05-23T07:16:42.902Z,45.12
2023-05-23T07:19:30.405Z,45.06
2023-05-23T07:22:16.978Z,45.09
2023-05-23T07:25:04.072Z,45.04
2023-05-23T07:27:54.695Z,44.93
2023-05-23T07:30:42.728Z,44.77
2023-05-23T07:33:34.666Z,44.95
2023-05-23T07:36:32.541Z,44.83
2023-05-23T07:39:22.799Z,44.94
2023-05-23T07:42:11.524Z,44.89
2023-05-23T07:44:58.148Z,44.64
2023-05-23T07:47:44.594Z,44.77
2023-05-23T07:50:31.715Z,44.78
2023-05-23T07:53:18.531Z,44.61
2023-05-23T07:56:06.237Z,44.33
2023-05-23T07:58:56.304Z,44.14
2023-05-23T08:01:44.962Z,44.31
2023-05-23T08:04:36.318Z,44.29
2023-05-23T08:07:23.916Z,44.02
2023-05-23T08:10:14.037Z,43.75
2023-05-23T08:13:01.128Z,43.80
2023-05-23T08:15:54.307Z,43.62
2023-05-23T08:18:44.065Z,43.32
2023-05-23T08:21:30.042Z,43.52
2023-05-23T08:24:16.156Z,43.23
2023-05-23T08:27:06.784Z,43.01
2023-05-23T08:29:55.886Z,42.81
2023-05-23T08:32:43.799Z,42.79
2023-05-23T08:35:35.234Z,42.75
2023-05-23T08:38:24.191Z,42.44
2023-05-23T08:41:22.311Z,42.47
2023-05-23T08:44:11.362Z,42.22
2023-05-23T08:47:08.849Z,42.42
2023-05-23T08:50:08.420Z,42.17
2023-05-23T08:52:59.261Z,42.00
2023-05-23T08:55:48.930Z,41.84
2023-05-23T08:58:36.557Z,41.87
2023-05-23T09:01:26.440Z,41.53
2023-05-23T09:04:15.403Z,41.42
2023-05-23T09:07:17.062Z,41.55
2023-05-23T09:10:07.221Z,41.14
2023-05-23T09:12:53.474Z,41.02
2023-05-23T09:16:00.229Z,41.03
2023-05-23T09:18:49.163Z,41.07
2023-05-23T09:21:36.877Z,41.19
2023-05-23T09:24:38.661Z,40.78
2023-05-23T09:27:28.010Z,40.50
2023-05-23T09:30:14.550Z,40.47
2023-05-23T09:33:05.459Z,40.30
2023-05-23T09:35:52.574Z,40.30
2023-05-23T09:38:39.970Z,40.03
2023-05-23T09:41:26.698Z,40.11
2023-05-23T09:44:12.692Z,39.88
2023-05-23T09:46:58.748Z,39.75
2023-05-23T09:49:46.751Z,39.64
2023-05-23T09:52:39.021Z,39.63
2023-05-23T09:55:25.189Z,39.41
2023-05-23T09:58:11.491Z,39.51
2023-05-23T10:01:00.758Z,39.59
2023-05-23T10:03:51.936Z,39.33
2023-05-23T10:06:43.129Z,39.21
2023-05-23T10:09:33.856Z,39.14
2023-05-23T10:12:41.600Z,38.99
2023-05-23T10:15:31.461Z,38.89
2023-05-23T10:18:21.667Z,38.82
2023-05-23T10:21:12.221Z,38.75
2023-05-23T10:24:00.047Z,38.81
2023-05-23T10:26:46.368Z,38.76
2023-05-23T10:29:33.977Z,38.52
2023-05-23T10:32:20.062Z,38.37
2023-05-23T10:35:15.307Z,38.24
2023-05-23T10:38:14.081Z,38.00
2023-05-23T10:41:24.681Z,37.87
2023-05-23T10:44:33.925Z,37.44
2023-05-23T10:47:28.929Z,37.63
2023-05-23T10:50:37.421Z,37.17
2023-05-23T10:53:23.803Z,37.24
2023-05-23T10:56:10.874Z,36.90
2023-05-23T10:58:58.581Z,36.86
2023-05-23T11:01:45.024Z,36.71
2023-05-23T11:04:30.986Z,36.68
2023-05-23T11:07:31.034Z,36.52
2023-05-23T11:10:18.980Z,36.00
2023-05-23T11:13:07.804Z,36.28
2023-05-23T11:15:53.836Z,36.20
2023-05-23T11:18:40.062Z,36.25
2023-05-23T11:21:27.779Z,36.30
2023-05-23T11:24:13.899Z,36.20
2023-05-23T11:27:01.363Z,36.07
2023-05-23T11:30:00.745Z,36.02
2023-05-23T11:32:53.142Z,35.93
2023-05-23T11:35:47.113Z,35.78
2023-05-23T11:38:33.216Z,35.86
2023-05-23T11:41:19.589Z,35.69
2023-05-23T11:44:13.671Z,35.68
2023-05-23T11:47:04.400Z,35.49
2023-05-23T11:49:50.530Z,35.55
2023-05-23T11:52:36.676Z,35.36
2023-05-23T11:55:23.617Z,35.34
2023-05-23T11:58:09.738Z,35.07
2023-05-23T12:01:06.770Z,35.09
2023-05-23T12:03:53.273Z,35.35
2023-05-23T12:06:41.931Z,35.48
2023-05-23T12:09:28.047Z,35.52
2023-05-23T12:12:14.836Z,35.52
2023-05-23T12:15:01.389Z,35.88
2023-05-23T12:17:47.730Z,35.58
2023-05-23T12:20:35.628Z,35.70
2023-05-23T12:23:25.307Z,35.56
2023-05-23T12:26:11.813Z,35.88
2023-05-23T12:29:00.219Z,36.02
2023-05-23T12:31:49.498Z,36.01
2023-05-23T12:34:41.803Z,36.23
2023-05-23T12:37:30.043Z,36.42
2023-05-23T12:40:17.884Z,36.55
2023-05-23T12:43:04.069Z,36.52
2023-05-23T12:45:50.257Z,36.65
2023-05-23T12:48:36.033Z,37.04
2023-05-23T12:51:22.435Z,37.01
2023-05-23T12:54:11.735Z,37.11
2023-05-23T12:56:57.975Z,37.31
2023-05-23T12:59:43.823Z,37.15
2023-05-23T13:02:29.868Z,37.05
2023-05-23T13:05:15.927Z,36.85
2023-05-23T13:08:02.113Z,36.67
2023-05-23T13:10:48.380Z,36.60
2023-05-23T13:13:34.502Z,36.55
2023-05-23T13:16:20.883Z,36.34
2023-05-23T13:19:07.180Z,36.14
2023-05-23T13:21:53.114Z,35.79
2023-05-23T13:24:39.945Z,35.64
2023-05-23T13:27:26.222Z,34.93
2023-05-23T13:30:12.768Z,34.24
2023-05-23T13:32:59.089Z,33.78
2023-05-23T13:35:45.611Z,33.11
2023-05-23T13:38:32.436Z,33.22
2023-05-23T13:41:31.189Z,32.62
2023-05-23T13:44:19.324Z,32.54
2023-05-23T13:47:13.152Z,32.01
2023-05-23T13:49:59.527Z,31.33
2023-05-23T13:52:49.024Z,31.11
2023-05-23T13:55:36.697Z,30.59
2023-05-23T13:58:22.875Z,30.18
2023-05-23T14:01:09.539Z,29.18
2023-05-23T14:03:56.876Z,28.93
2023-05-23T14:06:43.053Z,28.35
2023-05-23T14:09:29.396Z,27.80
2023-05-23T14:12:15.464Z,27.48
2023-05-23T14:15:01.301Z,27.02
2023-05-23T14:17:47.948Z,26.48
2023-05-23T14:20:34.213Z,26.47
2023-05-23T14:23:20.458Z,26.08
2023-05-23T14:26:06.638Z,25.61
2023-05-23T14:28:52.748Z,25.20
2023-05-23T14:31:39.166Z,25.14
2023-05-23T14:34:25.527Z,25.27
2023-05-23T14:37:11.767Z,24.75
2023-05-23T14:39:58.074Z,24.27
2023-05-23T14:42:44.465Z,23.48
2023-05-23T14:45:30.691Z,23.15
2023-05-23T14:48:17.245Z,23.32
2023-05-23T14:51:03.494Z,23.29
2023-05-23T14:53:49.617Z,22.57
2023-05-23T14:56:37.792Z,22.12
2023-05-23T14:59:24.117Z,20.93
2023-05-23T15:02:10.546Z,20.25
2023-05-23T15:04:56.737Z,20.00
2023-05-23T15:07:42.991Z,19.32
2023-05-23T15:10:28.720Z,19.05
2023-05-23T15:13:15.087Z,19.61
2023-05-23T15:16:01.468Z,18.76
2023-05-23T15:18:47.650Z,18.51
2023-05-23T15:21:34.518Z,18.60
2023-05-23T15:24:20.808Z,18.31
2023-05-23T15:27:19.428Z,18.77
2023-05-23T15:30:08.600Z,19.29
2023-05-23T15:32:57.890Z,19.87
2023-05-23T15:35:45.160Z,20.24
2023-05-23T15:38:31.211Z,20.52
2023-05-23T15:41:17.075Z,20.88
2023-05-23T15:44:03.165Z,20.81
2023-05-23T15:46:51.304Z,21.21
2023-05-23T15:49:43.964Z,21.68
2023-05-23T15:52:29.830Z,21.80
2023-05-23T15:55:16.216Z,22.31
2023-05-23T15:58:02.323Z,23.48
2023-05-23T16:00:48.415Z,23.71
2023-05-23T16:03:34.529Z,23.79
2023-05-23T16:06:21.375Z,24.04
2023-05-23T16:09:07.435Z,25.07
2023-05-23T16:11:53.474Z,25.51
2023-05-23T16:14:39.763Z,25.91
2023-05-23T16:17:25.779Z,25.64
2023-05-23T16:20:11.789Z,26.24
2023-05-23T16:22:57.997Z,25.98
2023-05-23T16:25:44.432Z,26.35
2023-05-23T16:28:30.758Z,26.81
2023-05-23T16:31:17.215Z,27.30
2023-05-23T16:34:03.508Z,27.40
2023-05-23T16:36:49.430Z,27.77
2023-05-23T16:39:35.614Z,27.99
2023-05-23T16:42:22.461Z,28.35
2023-05-23T16:45:08.903Z,28.35
2023-05-23T16:47:55.134Z,28.56
2023-05-23T16:50:41.339Z,28.53
2023-05-23T16:53:28.469Z,28.46
2023-05-23T16:56:14.842Z,28.37
2023-05-23T16:59:00.907Z,28.39
2023-05-23T17:01:47.122Z,28.16
2023-05-23T17:04:33.186Z,28.11
2023-05-23T17:07:18.948Z,28.32
2023-05-23T17:10:05.106Z,28.16
2023-05-23T17:12:51.071Z,28.23
2023-05-23T17:15:37.328Z,28.38
2023-05-23T17:18:23.543Z,28.42
2023-05-23T17:21:09.591Z,28.73
2023-05-23T17:24:00.748Z,28.92
2023-05-23T17:26:47.020Z,29.00
2023-05-23T17:29:34.304Z,29.35
2023-05-23T17:32:20.211Z,29.20
2023-05-23T17:35:06.879Z,29.83
2023-05-23T17:37:57.567Z,29.98
2023-05-23T17:40:43.802Z,30.06
2023-05-23T17:43:30.221Z,30.26
2023-05-23T17:46:16.476Z,30.57
2023-05-23T17:49:02.570Z,30.71
2023-05-23T17:51:48.628Z,30.82
2023-05-23T17:54:34.432Z,30.69
2023-05-23T17:57:20.351Z,31.13
2023-05-23T18:00:07.350Z,30.92
2023-05-23T18:02:58.608Z,31.18
2023-05-23T18:05:44.548Z,31.26
2023-05-23T18:08:31.140Z,31.22
2023-05-23T18:11:17.389Z,31.12
2023-05-23T18:14:03.403Z,31.17
2023-05-23T18:16:49.629Z,31.12
2023-05-23T18:20:11.826Z,31.76
2023-05-23T18:22:57.752Z,31.50
2023-05-23T18:25:43.949Z,31.89
2023-05-23T18:28:31.866Z,32.23
2023-05-23T18:31:17.950Z,32.37
2023-05-23T18:34:04.645Z,32.29
2023-05-23T18:36:50.603Z,32.59
2023-05-23T18:39:36.561Z,32.72
2023-05-23T18:42:22.525Z,33.06
2023-05-23T18:45:09.514Z,33.00
2023-05-23T18:47:55.340Z,33.14
2023-05-23T18:50:41.619Z,33.35
2023-05-23T18:53:27.657Z,33.39
2023-05-23T18:56:13.790Z,33.49
2023-05-23T18:58:59.663Z,33.77
2023-05-23T19:01:45.402Z,33.87
2023-05-23T19:04:31.419Z,33.96
2023-05-23T19:07:17.622Z,33.83
2023-05-23T19:10:03.964Z,34.00
2023-05-23T19:12:50.173Z,34.18
2023-05-23T19:15:36.270Z,34.42
2023-05-23T19:18:23.305Z,34.33
2023-05-23T19:21:11.400Z,34.39
2023-05-23T19:24:00.653Z,34.72
2023-05-23T19:26:46.668Z,34.60
2023-05-23T19:29:34.975Z,34.84
2023-05-23T19:32:21.130Z,34.97
2023-05-23T19:35:08.734Z,35.30
2023-05-23T19:37:55.167Z,35.42
2023-05-23T19:40:41.302Z,35.88
2023-05-23T19:43:27.671Z,35.88
2023-05-23T19:46:13.735Z,36.05
2023-05-23T19:48:59.973Z,36.11
2023-05-23T19:51:45.971Z,36.39
2023-05-23T19:54:33.152Z,36.80
2023-05-23T19:57:20.210Z,36.90
2023-05-23T20:00:07.396Z,37.13
2023-05-23T20:02:53.219Z,37.42
2023-05-23T20:05:39.196Z,37.71
2023-05-23T20:08:25.522Z,37.96
2023-05-23T20:11:12.613Z,37.74
2023-05-23T20:13:58.552Z,37.93
2023-05-23T20:16:44.329Z,38.44
2023-05-23T20:19:30.353Z,38.21
2023-05-23T20:22:16.983Z,38.51
2023-05-23T20:25:03.064Z,38.53
2023-05-23T20:27:48.995Z,38.65
2023-05-23T20:30:35.076Z,38.62
2023-05-23T20:33:20.953Z,38.68
2023-05-23T20:36:07.802Z,38.78
2023-05-23T20:38:54.200Z,39.01
2023-05-23T20:41:42.193Z,39.08
2023-05-23T20:44:28.120Z,39.24
2023-05-23T20:47:15.582Z,39.49
2023-05-23T20:50:01.551Z,39.51
2023-05-23T20:52:48.124Z,39.60
2023-05-23T20:55:38.132Z,39.64
2023-05-23T20:58:24.279Z,39.90
2023-05-23T21:01:12.023Z,39.89
2023-05-23T21:03:57.876Z,39.81
2023-05-23T21:06:43.637Z,39.85
2023-05-23T21:09:29.598Z,40.09
2023-05-23T21:12:27.486Z,40.30
2023-05-23T21:15:13.589Z,40.48
2023-05-23T21:17:59.502Z,40.58
2023-05-23T21:20:46.874Z,40.82
2023-05-23T21:23:32.928Z,40.72
2023-05-23T21:26:18.865Z,41.04
2023-05-23T21:29:06.126Z,40.99
2023-05-23T21:31:52.853Z,41.03
2023-05-23T21:34:38.852Z,41.18
2023-05-23T21:37:25.043Z,41.12
2023-05-23T21:40:11.408Z,41.27
2023-05-23T21:42:57.413Z,41.45
2023-05-23T21:45:43.498Z,41.30
2023-05-23T21:48:29.652Z,41.25
2023-05-23T21:51:15.569Z,41.38
2023-05-23T21:54:01.840Z,41.50
2023-05-23T21:56:47.890Z,41.88
2023-05-23T21:59:33.694Z,41.77
2023-05-23T22:02:20.026Z,41.85
2023-05-23T22:05:07.125Z,42.19
2023-05-23T22:07:53.225Z,41.93
2023-05-23T22:10:40.890Z,42.05
2023-05-23T22:13:27.397Z,42.21
2023-05-23T22:16:13.569Z,42.20
2023-05-23T22:19:00.687Z,42.36
2023-05-23T22:21:46.967Z,42.35
2023-05-23T22:24:32.725Z,42.41
2023-05-23T22:27:18.614Z,42.44
2023-05-23T22:30:07.294Z,42.65
2023-05-23T22:32:53.692Z,42.69
2023-05-23T22:35:41.043Z,42.67
2023-05-23T22:38:26.810Z,42.67
2023-05-23T22:41:14.978Z,42.70
2023-05-23T22:44:02.235Z,43.00
2023-05-23T22:46:49.188Z,42.82
2023-05-23T22:49:35.457Z,42.81
2023-05-23T22:52:23.442Z,43.17
2023-05-23T22:55:10.190Z,43.06
2023-05-23T22:57:56.073Z,42.89
2023-05-23T23:00:43.664Z,43.24
2023-05-23T23:03:29.847Z,43.17
2023-05-23T23:06:15.786Z,43.32
2023-05-23T23:09:01.830Z,43.34
2023-05-23T23:11:48.103Z,43.35
2023-05-23T23:14:33.987Z,43.50
2023-05-23T23:17:19.976Z,43.38
2023-05-23T23:20:08.501Z,43.57
2023-05-23T23:22:54.451Z,43.63
2023-05-23T23:25:40.439Z,43.83
2023-05-23T23:28:26.688Z,43.65
2023-05-23T23:31:12.610Z,43.73
2023-05-23T23:33:58.497Z,43.82
2023-05-23T23:36:44.208Z,43.78
2023-05-23T23:39:30.203Z,43.74
2023-05-23T23:42:16.626Z,43.83
2023-05-23T23:45:02.811Z,43.73
2023-05-23T23:47:49.170Z,43.94
2023-05-23T23:50:35.374Z,44.00
2023-05-23T23:53:21.861Z,43.83
2023-05-23T23:56:08.666Z,44.06
2023-05-23T23:58:54.358Z,44.04
